createdAt,value
2019-05-13T05:11:34.213Z,4.62
2019-05-13T05:21:34.922Z,6.37
2019-05-13T05:31:34.479Z,7.25
2019-05-13T05:41:34.731Z,8.00
2019-05-13T05:51:34.405Z,8.50
2019-05-13T06:01:37.225Z,8.75
2019-05-13T06:11:36.995Z,9.25
2019-05-13T06:21:34.192Z,9.75
2019-05-13T06:31:34.397Z,10.38
2019-05-13T06:41:34.537Z,10.75
2019-05-13T06:51:34.826Z,12.13
2019-05-13T07:01:34.483Z,14.25
2019-05-13T07:11:34.376Z,15.38
2019-05-13T07:21:34.431Z,16.87
2019-05-13T07:31:34.376Z,17.62
2019-05-13T07:41:39.289Z,18.37
2019-05-13T07:51:34.918Z,20.25
2019-05-13T08:01:34.252Z,21.37
2019-05-13T08:11:40.154Z,22.00
2019-05-13T08:21:34.910Z,21.87
2019-05-13T08:31:35.048Z,21.75
2019-05-13T08:41:34.890Z,21.75
2019-05-13T08:51:34.866Z,22.62
2019-05-13T09:01:36.744Z,22.87
2019-05-13T09:11:34.889Z,22.62
2019-05-13T09:21:34.931Z,22.87
2019-05-13T09:31:35.098Z,23.38
2019-05-13T09:41:40.886Z,24.00
2019-05-13T09:51:35.270Z,22.62
2019-05-13T10:01:35.026Z,22.50
2019-05-13T10:11:34.964Z,22.25
2019-05-13T10:21:34.642Z,22.50
2019-05-13T10:31:34.814Z,23.00
2019-05-13T10:41:35.204Z,24.00
2019-05-13T10:51:34.239Z,23.50
2019-05-13T11:01:34.699Z,22.50
2019-05-13T11:11:34.878Z,22.75
2019-05-13T11:21:34.850Z,23.75
2019-05-13T11:31:35.142Z,23.12
2019-05-13T11:41:34.818Z,21.37
2019-05-13T11:51:34.960Z,21.12
2019-05-13T12:01:34.434Z,21.50
2019-05-13T12:11:34.598Z,21.75
2019-05-13T12:21:41.695Z,21.12
2019-05-13T12:31:34.842Z,20.12
2019-05-13T12:41:34.901Z,21.50
2019-05-13T12:51:35.073Z,21.12
2019-05-13T13:01:35.048Z,22.13
2019-05-13T13:11:35.068Z,22.00
2019-05-13T13:21:37.710Z,22.50
2019-05-13T13:31:34.956Z,22.87
2019-05-13T13:41:34.939Z,22.00
2019-05-13T13:51:34.696Z,22.62
2019-05-13T14:01:34.960Z,21.25
2019-05-13T14:11:34.836Z,21.00
2019-05-13T14:21:34.914Z,20.25
2019-05-13T14:31:34.867Z,22.87
2019-05-13T14:41:33.896Z,23.50
2019-05-13T14:51:34.079Z,24.37
2019-05-13T15:01:34.163Z,21.25
2019-05-13T15:11:34.125Z,22.50
2019-05-13T15:21:34.426Z,23.62
2019-05-13T15:31:34.168Z,20.00
2019-05-13T15:41:34.027Z,18.75
2019-05-13T15:51:34.708Z,22.13
2019-05-13T16:01:34.054Z,22.25
2019-05-13T16:11:34.237Z,22.62
2019-05-13T16:21:34.082Z,21.87
2019-05-13T16:31:34.691Z,21.62
2019-05-13T16:41:34.488Z,21.75
2019-05-13T16:51:34.615Z,21.00
2019-05-13T17:01:34.702Z,20.75
2019-05-13T17:11:34.561Z,20.75
2019-05-13T17:21:36.081Z,18.37
2019-05-13T17:31:34.398Z,16.50
2019-05-13T17:41:34.344Z,16.12
2019-05-13T17:51:34.630Z,15.63
2019-05-13T18:01:34.494Z,15.25
2019-05-13T18:11:34.470Z,15.00
2019-05-13T18:21:35.262Z,14.75
2019-05-13T18:31:34.701Z,14.38
2019-05-13T18:41:34.443Z,14.13
2019-05-13T18:51:34.335Z,13.88
2019-05-13T19:01:34.398Z,13.38
